Погода Скульскна 2 недели

Великопольское воеводство, Польша

19 июля-01 августа
  • 19июля
    Сегодня
    +16°
    +27°
    Облачно с прояснениями
    ВремяПогодаТемператураВлажностьДавлениеВетер, м/сВероятность осадков
    02:00Облачно с прояснениями+17°C83 %758 мм2.5 м/с2 %
    05:00Небольшая облачность+15°C93 %758 мм1.6 м/с2 %
    08:00Ясно и безоблачно+20°C74 %758 мм1.5 м/с2 %
    11:00Небольшая облачность+23°C58 %758 мм1.2 м/с2 %
    14:00Облачно с прояснениями+25°C51 %757 мм1.8 м/с2 %
    17:00Небольшая облачность+26°C49 %756 мм2.4 м/с2 %
    20:00Ясно и безоблачно+24°C69 %755 мм1.3 м/с2 %
    23:00Ясно и безоблачно+19°C71 %755 мм2.5 м/с2 %
  • 20июля
    Суббота
    +15°
    +28°
    Облачно с прояснениями
    ВремяПогодаТемператураВлажностьДавлениеВетер, м/сВероятность осадков
    02:00Облачно с прояснениями+17°C80 %754 мм2.0 м/с2 %
    05:00Облачно с прояснениями+17°C85 %754 мм1.5 м/с2 %
    08:00Небольшая облачность+21°C70 %753 мм0.1 м/с2 %
    11:00Облачно с прояснениями+25°C50 %753 мм0.9 м/с2 %
    14:00Облачно с прояснениями+27°C41 %752 мм1.7 м/с2 %
    17:00Ясно и безоблачно+28°C39 %751 мм2.2 м/с2 %
    20:00Облачно с прояснениями+25°C54 %750 мм1.9 м/с2 %
    23:00Облачно с прояснениями+21°C61 %750 мм2.5 м/с2 %
  • 21июля
    Воскресенье
    +16°
    +30°
    Ясно и безоблачно
    ВремяПогодаТемператураВлажностьДавлениеВетер, м/сВероятность осадков
    02:00Практически безоблачно+17°C74 %749 мм1.9 м/с2 %
    05:00Ясно и безоблачно+16°C85 %749 мм2.2 м/с2 %
    08:00Ясно и безоблачно+22°C67 %749 мм1.4 м/с2 %
    11:00Ясно и безоблачно+27°C43 %749 мм1.7 м/с2 %
    14:00Ясно и безоблачно+28°C38 %749 мм1.8 м/с2 %
    17:00Ясно и безоблачно+29°C37 %748 мм2.5 м/с2 %
    20:00Ясно и безоблачно+26°C51 %748 мм2.1 м/с2 %
    23:00Ясно и безоблачно+21°C61 %748 мм2.3 м/с2 %
  • 22июля
    Понедельник
    +16°
    +30°
    Небольшая облачность
    ВремяПогодаТемператураВлажностьДавлениеВетер, м/сВероятность осадков
    02:00Небольшая облачность+19°C75 %748 мм2.2 м/с2 %
    05:00Ясно и безоблачно+17°C87 %748 мм1.7 м/с2 %
    08:00Ясно и безоблачно+22°C68 %749 мм0.8 м/с2 %
    11:00Ясно и безоблачно+28°C42 %749 мм0.9 м/с2 %
    14:00Небольшая облачность+30°C35 %749 мм0.6 м/с9 %
    17:00Облачно с прояснениями+29°C35 %749 мм2.4 м/с22 %
    20:00Облачно с прояснениями+22°C77 %750 мм3.9 м/с30 %
    23:00Пасмурно, небольшой дождь+20°C88 %751 мм2.4 м/с30 %
  • 23июля
    Вторник
    +14°
    +24°
    Практически безоблачно
    ВремяПогодаТемператураВлажностьДавлениеВетер, м/сВероятность осадков
    02:00Небольшая облачность+18°C95 %752 мм3.7 м/с39 %
    05:00Пасмурно, сплошная облачность+16°C90 %752 мм4.5 м/с37 %
    08:00Практически безоблачно+19°C80 %753 мм4.6 м/с31 %
    11:00Ясно и безоблачно+22°C58 %753 мм3.8 м/с29 %
    14:00Практически безоблачно+23°C49 %753 мм3.8 м/с33 %
    17:00Ясно и безоблачно+24°C43 %752 мм3.2 м/с26 %
    20:00Ясно и безоблачно+22°C53 %752 мм1.9 м/с21 %
    23:00Ясно и безоблачно+17°C72 %752 мм2.0 м/с18 %
Мы используем cookies
Соглашаюсь